createdAt,value
2023-01-18T00:03:47.605Z,96015.98
2023-01-18T00:08:49.546Z,96018.18
2023-01-18T00:13:58.025Z,96011.35
2023-01-18T00:19:03.919Z,96006.21
2023-01-18T00:24:11.175Z,96000.91
2023-01-18T00:29:13.178Z,96003.48
2023-01-18T00:34:15.414Z,96000.88
2023-01-18T00:39:17.353Z,95997.25
2023-01-18T00:44:19.945Z,95990.88
2023-01-18T00:49:22.659Z,95981.13
2023-01-18T00:54:24.638Z,95963.52
2023-01-18T00:59:26.552Z,95956.42
2023-01-18T01:04:47.147Z,95949.81
2023-01-18T01:09:49.228Z,95933.88
2023-01-18T01:15:09.899Z,95922.60
2023-01-18T01:20:31.281Z,95927.39
2023-01-18T01:25:51.947Z,95932.27
2023-01-18T01:31:02.124Z,95937.48
2023-01-18T01:36:07.321Z,95933.86
2023-01-18T01:41:26.536Z,95933.19
2023-01-18T01:46:35.043Z,95934.73
2023-01-18T01:51:41.718Z,95926.29
2023-01-18T01:56:46.858Z,95927.70
2023-01-18T02:01:51.611Z,95935.08
2023-01-18T02:06:53.498Z,95937.43
2023-01-18T02:11:55.736Z,95945.62
2023-01-18T02:17:23.326Z,95945.07
2023-01-18T02:22:44.689Z,95943.73
2023-01-18T02:27:55.835Z,95947.77
2023-01-18T02:33:10.568Z,95942.52
2023-01-18T02:38:35.663Z,95936.60
2023-01-18T02:43:58.812Z,95929.02
2023-01-18T02:49:06.502Z,95920.65
2023-01-18T02:54:12.094Z,95930.45
2023-01-18T02:59:41.357Z,95941.89
2023-01-18T03:04:54.074Z,95941.85
2023-01-18T03:09:58.614Z,95941.40
2023-01-18T03:15:14.153Z,95934.80
2023-01-18T03:20:19.782Z,95933.54
2023-01-18T03:25:30.379Z,95925.09
2023-01-18T03:30:53.901Z,95904.75
2023-01-18T03:35:58.134Z,95908.92
2023-01-18T03:41:10.768Z,95871.68
2023-01-18T03:46:23.518Z,95820.45
2023-01-18T03:51:33.816Z,95789.36
2023-01-18T03:56:50.081Z,95778.59
2023-01-18T04:01:53.013Z,95772.98
2023-01-18T04:06:57.990Z,95806.42
2023-01-18T04:12:00.158Z,95842.14
2023-01-18T04:17:10.410Z,95845.84
2023-01-18T04:22:16.325Z,95858.63
2023-01-18T04:27:24.180Z,95857.38
2023-01-18T04:32:29.307Z,95842.16
2023-01-18T04:37:34.631Z,95829.61
2023-01-18T04:42:37.149Z,95820.59
2023-01-18T04:47:43.448Z,95820.39
2023-01-18T04:52:50.751Z,95837.22
2023-01-18T04:57:58.744Z,95837.73
2023-01-18T05:03:01.395Z,95848.98
2023-01-18T05:08:03.989Z,95852.58
2023-01-18T05:13:06.038Z,95856.56
2023-01-18T05:18:08.329Z,95841.59
2023-01-18T05:23:10.930Z,95840.25
2023-01-18T05:28:12.996Z,95836.84
2023-01-18T05:33:15.327Z,95839.61
2023-01-18T05:38:17.984Z,95847.37
2023-01-18T05:43:25.391Z,95859.27
2023-01-18T05:48:27.596Z,95863.50
2023-01-18T05:53:29.453Z,95853.95
2023-01-18T05:58:34.736Z,95850.32
2023-01-18T06:03:37.195Z,95837.57
2023-01-18T06:08:42.657Z,95825.41
2023-01-18T06:13:44.644Z,95824.23
2023-01-18T06:18:46.766Z,95830.88
2023-01-18T06:23:51.531Z,95846.63
2023-01-18T06:28:53.861Z,95869.55
2023-01-18T06:33:56.075Z,95881.53
2023-01-18T06:38:57.933Z,95876.42
2023-01-18T06:44:00.158Z,95872.14
2023-01-18T06:49:03.536Z,95868.79
2023-01-18T06:54:06.338Z,95872.59
2023-01-18T06:59:09.544Z,95871.95
2023-01-18T07:04:11.453Z,95871.06
2023-01-18T07:09:14.558Z,95877.39
2023-01-18T07:14:16.976Z,95878.37
2023-01-18T07:19:19.815Z,95882.64
2023-01-18T07:24:23.067Z,95888.02
2023-01-18T07:29:27.660Z,95896.84
2023-01-18T07:34:29.786Z,95892.00
2023-01-18T07:39:31.908Z,95895.23
2023-01-18T07:44:33.742Z,95896.20
2023-01-18T07:49:36.767Z,95891.86
2023-01-18T07:54:39.036Z,95886.64
2023-01-18T07:59:41.702Z,95884.23
2023-01-18T08:04:45.220Z,95902.52
2023-01-18T08:09:47.559Z,95919.63
2023-01-18T08:14:49.638Z,95926.90
2023-01-18T08:19:51.802Z,95913.88
2023-01-18T08:24:54.755Z,95892.59
2023-01-18T08:29:57.205Z,95892.29
2023-01-18T08:35:00.471Z,95898.45
2023-01-18T08:40:02.322Z,95918.34
2023-01-18T08:45:05.212Z,95926.61
2023-01-18T08:50:13.952Z,95923.75
2023-01-18T08:55:16.295Z,95912.67
2023-01-18T09:00:18.942Z,95927.50
2023-01-18T09:05:21.306Z,95943.48
2023-01-18T09:10:23.738Z,95956.41
2023-01-18T09:15:27.124Z,95963.30
2023-01-18T09:20:29.849Z,95967.86
2023-01-18T09:25:37.258Z,95975.75
2023-01-18T09:30:39.733Z,95982.17
2023-01-18T09:35:41.911Z,95983.77
2023-01-18T09:40:46.153Z,95980.94
2023-01-18T09:45:48.274Z,95983.33
2023-01-18T09:50:53.292Z,95980.56
2023-01-18T09:56:03.297Z,95992.09
2023-01-18T10:01:12.290Z,96002.11
2023-01-18T10:06:49.387Z,96019.81
2023-01-18T10:11:59.536Z,96039.43
2023-01-18T10:17:14.747Z,96050.76
2023-01-18T10:22:26.562Z,96056.41
2023-01-18T10:27:37.675Z,96059.86
2023-01-18T10:32:48.132Z,96061.15
2023-01-18T10:37:51.788Z,96067.48
2023-01-18T10:43:00.922Z,96076.14
2023-01-18T10:48:18.636Z,96090.27
2023-01-18T10:53:35.350Z,96102.25
2023-01-18T10:59:01.035Z,96105.77
2023-01-18T11:04:08.150Z,96107.98
2023-01-18T11:09:48.581Z,96112.08
2023-01-18T11:14:51.076Z,96113.70
2023-01-18T11:20:07.395Z,96109.15
2023-01-18T11:25:17.425Z,96112.55
2023-01-18T11:30:22.573Z,96128.16
2023-01-18T11:35:32.962Z,96134.75
2023-01-18T11:40:35.371Z,96144.27
2023-01-18T11:45:49.072Z,96147.91
2023-01-18T11:50:59.732Z,96156.98
2023-01-18T11:56:10.036Z,96160.02
2023-01-18T12:01:30.897Z,96162.27
2023-01-18T12:06:55.161Z,96169.07
2023-01-18T12:12:21.756Z,96175.08
2023-01-18T12:17:37.861Z,96193.20
2023-01-18T12:23:18.242Z,96203.02
2023-01-18T12:28:38.747Z,96219.77
2023-01-18T12:33:47.725Z,96234.14
2023-01-18T12:38:54.030Z,96240.23
2023-01-18T12:44:23.075Z,96257.23
2023-01-18T12:49:28.484Z,96271.46
2023-01-18T12:54:36.678Z,96282.11
2023-01-18T12:59:52.861Z,96294.43
2023-01-18T13:05:10.396Z,96299.91
2023-01-18T13:10:24.489Z,96305.48
2023-01-18T13:16:09.561Z,96314.89
2023-01-18T13:21:39.764Z,96321.20
2023-01-18T13:26:42.965Z,96328.56
2023-01-18T13:31:46.406Z,96340.11
2023-01-18T13:36:49.179Z,96352.50
2023-01-18T13:42:04.573Z,96360.45
2023-01-18T13:47:45.890Z,96370.64
2023-01-18T13:53:10.516Z,96378.58
2023-01-18T13:58:25.824Z,96388.61
2023-01-18T14:03:33.634Z,96410.61
2023-01-18T14:08:38.257Z,96419.45
2023-01-18T14:13:49.203Z,96434.23
2023-01-18T14:18:58.364Z,96445.16
2023-01-18T14:24:32.715Z,96452.65
2023-01-18T14:29:49.947Z,96471.45
2023-01-18T14:35:04.555Z,96483.48
2023-01-18T14:40:16.365Z,96498.17
2023-01-18T14:45:25.612Z,96507.51
2023-01-18T14:50:33.032Z,96517.30
2023-01-18T14:55:35.585Z,96527.42
2023-01-18T15:00:53.875Z,96536.14
2023-01-18T15:06:12.510Z,96539.80
2023-01-18T15:11:15.188Z,96545.46
2023-01-18T15:16:21.391Z,96554.52
2023-01-18T15:21:36.475Z,96573.91
2023-01-18T15:26:52.985Z,96588.66
2023-01-18T15:32:03.573Z,96600.02
2023-01-18T15:37:11.455Z,96605.79
2023-01-18T15:42:15.870Z,96607.86
2023-01-18T15:47:50.319Z,96618.27
2023-01-18T15:53:06.048Z,96628.40
2023-01-18T15:58:17.711Z,96630.91
2023-01-18T16:03:23.160Z,96639.59
2023-01-18T16:08:25.666Z,96646.64
2023-01-18T16:13:33.930Z,96647.30
2023-01-18T16:18:36.034Z,96651.98
2023-01-18T16:23:43.589Z,96656.13
2023-01-18T16:28:45.905Z,96678.48
2023-01-18T16:33:48.093Z,96692.66
2023-01-18T16:38:50.210Z,96706.89
2023-01-18T16:43:52.984Z,96716.46
2023-01-18T16:48:56.191Z,96729.03
2023-01-18T16:54:01.739Z,96738.36
2023-01-18T16:59:17.640Z,96748.65
2023-01-18T17:04:22.445Z,96757.52
2023-01-18T17:09:28.046Z,96768.10
2023-01-18T17:14:32.790Z,96801.27
2023-01-18T17:19:38.382Z,96817.05
2023-01-18T17:24:40.436Z,96812.17
2023-01-18T17:29:43.570Z,96823.41
2023-01-18T17:34:45.747Z,96822.80
2023-01-18T17:40:02.374Z,96827.97
2023-01-18T17:45:14.234Z,96839.63
2023-01-18T17:50:22.873Z,96844.30
2023-01-18T17:55:34.262Z,96845.28
2023-01-18T18:00:36.987Z,96858.61
2023-01-18T18:05:39.461Z,96871.15
2023-01-18T18:10:43.656Z,96883.42
2023-01-18T18:15:49.073Z,96888.77
2023-01-18T18:21:02.575Z,96893.44
2023-01-18T18:26:05.540Z,96891.10
2023-01-18T18:31:15.934Z,96887.24
2023-01-18T18:36:18.009Z,96892.74
2023-01-18T18:41:20.102Z,96900.77
2023-01-18T18:46:23.235Z,96911.55
2023-01-18T18:51:25.675Z,96907.71
2023-01-18T18:56:28.113Z,96916.86
2023-01-18T19:01:31.207Z,96935.14
2023-01-18T19:06:35.287Z,96947.58
2023-01-18T19:11:39.472Z,96952.08
2023-01-18T19:16:41.658Z,96965.77
2023-01-18T19:21:44.106Z,96974.34
2023-01-18T19:26:46.469Z,96974.65
2023-01-18T19:31:48.515Z,96974.33
2023-01-18T19:36:51.663Z,96972.30
2023-01-18T19:41:53.592Z,96977.27
2023-01-18T19:46:57.262Z,96984.41
2023-01-18T19:51:59.396Z,96982.44
2023-01-18T19:57:02.596Z,96986.48
2023-01-18T20:02:05.115Z,96978.48
2023-01-18T20:07:07.340Z,96985.84
2023-01-18T20:12:10.305Z,96995.70
2023-01-18T20:17:15.793Z,96996.30
2023-01-18T20:22:18.319Z,96997.95
2023-01-18T20:27:20.348Z,97012.11
2023-01-18T20:32:22.644Z,97028.79
2023-01-18T20:37:24.761Z,97037.66
2023-01-18T20:42:26.835Z,97033.46
2023-01-18T20:47:32.677Z,97046.37
2023-01-18T20:52:34.649Z,97071.19
2023-01-18T20:57:37.381Z,97070.27
2023-01-18T21:02:43.182Z,97061.45
2023-01-18T21:07:45.041Z,97049.50
2023-01-18T21:12:48.279Z,97040.70
2023-01-18T21:17:52.239Z,97050.23
2023-01-18T21:22:54.329Z,97048.91
2023-01-18T21:27:58.092Z,97041.50
2023-01-18T21:33:01.004Z,97044.81
2023-01-18T21:38:04.740Z,97050.71
2023-01-18T21:43:25.442Z,97073.15
2023-01-18T21:48:30.553Z,97090.86
2023-01-18T21:53:51.771Z,97099.27
2023-01-18T21:58:54.536Z,97111.02
2023-01-18T22:04:15.558Z,97141.46
2023-01-18T22:09:18.205Z,97156.30
2023-01-18T22:14:23.034Z,97155.29
2023-01-18T22:19:25.160Z,97147.13
2023-01-18T22:24:27.202Z,97148.13
2023-01-18T22:29:29.292Z,97159.98
2023-01-18T22:34:36.372Z,97174.80
2023-01-18T22:39:38.402Z,97185.45
2023-01-18T22:44:41.723Z,97204.44
2023-01-18T22:49:43.603Z,97218.81
2023-01-18T22:54:46.698Z,97223.81
2023-01-18T22:59:49.391Z,97203.98
2023-01-18T23:04:51.367Z,97201.30
2023-01-18T23:09:53.747Z,97217.30
2023-01-18T23:15:14.417Z,97216.92
2023-01-18T23:20:16.706Z,97220.03
2023-01-18T23:25:18.743Z,97222.23
2023-01-18T23:30:26.768Z,97220.91
2023-01-18T23:35:31.680Z,97236.12
2023-01-18T23:40:54.876Z,97239.16
2023-01-18T23:46:19.949Z,97233.20
2023-01-18T23:51:40.627Z,97231.72
2023-01-18T23:56:44.599Z,97227.81
